sensor_id;sensor_type;location;lat;lon;timestamp;P1;durP1;ratioP1;P2;durP2;ratioP2
23614;SDS011;11985;49.404;7.734;2022-10-18T00:00:26;15.90;;;6.63;;
23614;SDS011;11985;49.404;7.734;2022-10-18T00:02:27;17.75;;;7.30;;
23614;SDS011;11985;49.404;7.734;2022-10-18T00:04:29;16.35;;;6.07;;
23614;SDS011;11985;49.404;7.734;2022-10-18T00:06:30;16.60;;;6.32;;
23614;SDS011;11985;49.404;7.734;2022-10-18T00:08:32;18.85;;;6.03;;
23614;SDS011;11985;49.404;7.734;2022-10-18T00:10:33;15.73;;;6.45;;
23614;SDS011;11985;49.404;7.734;2022-10-18T00:12:35;19.30;;;6.43;;
23614;SDS011;11985;49.404;7.734;2022-10-18T00:14:39;21.52;;;6.07;;
23614;SDS011;11985;49.404;7.734;2022-10-18T00:16:40;20.92;;;6.25;;
23614;SDS011;11985;49.404;7.734;2022-10-18T00:18:42;13.65;;;5.70;;
23614;SDS011;11985;49.404;7.734;2022-10-18T00:20:44;15.27;;;5.78;;
23614;SDS011;11985;49.404;7.734;2022-10-18T00:22:46;15.88;;;6.00;;
23614;SDS011;11985;49.404;7.734;2022-10-18T00:24:47;15.30;;;6.15;;
23614;SDS011;11985;49.404;7.734;2022-10-18T00:26:49;19.73;;;6.05;;
23614;SDS011;11985;49.404;7.734;2022-10-18T00:28:51;12.95;;;5.68;;
23614;SDS011;11985;49.404;7.734;2022-10-18T00:30:56;18.75;;;5.95;;
23614;SDS011;11985;49.404;7.734;2022-10-18T00:32:58;15.68;;;6.18;;
23614;SDS011;11985;49.404;7.734;2022-10-18T00:34:59;19.30;;;6.72;;
23614;SDS011;11985;49.404;7.734;2022-10-18T00:37:01;14.95;;;5.82;;
23614;SDS011;11985;49.404;7.734;2022-10-18T00:39:03;10.35;;;5.40;;
23614;SDS011;11985;49.404;7.734;2022-10-18T00:41:07;18.55;;;6.75;;
23614;SDS011;11985;49.404;7.734;2022-10-18T00:43:14;14.40;;;5.70;;
23614;SDS011;11985;49.404;7.734;2022-10-18T00:45:18;15.75;;;6.18;;
23614;SDS011;11985;49.404;7.734;2022-10-18T00:47:22;13.23;;;5.80;;
23614;SDS011;11985;49.404;7.734;2022-10-18T00:49:25;10.10;;;5.47;;
23614;SDS011;11985;49.404;7.734;2022-10-18T00:51:32;17.17;;;5.57;;
23614;SDS011;11985;49.404;7.734;2022-10-18T00:53:38;18.35;;;5.55;;
23614;SDS011;11985;49.404;7.734;2022-10-18T00:55:40;22.40;;;6.15;;
23614;SDS011;11985;49.404;7.734;2022-10-18T00:57:42;9.23;;;5.10;;
23614;SDS011;11985;49.404;7.734;2022-10-18T00:59:45;15.48;;;5.75;;
23614;SDS011;11985;49.404;7.734;2022-10-18T01:01:47;10.93;;;5.57;;
23614;SDS011;11985;49.404;7.734;2022-10-18T01:03:50;18.50;;;6.50;;
23614;SDS011;11985;49.404;7.734;2022-10-18T01:05:53;14.00;;;5.50;;
23614;SDS011;11985;49.404;7.734;2022-10-18T01:10:29;23.33;;;5.55;;
23614;SDS011;11985;49.404;7.734;2022-10-18T01:12:43;14.68;;;5.30;;
23614;SDS011;11985;49.404;7.734;2022-10-18T01:14:56;21.02;;;6.00;;
23614;SDS011;11985;49.404;7.734;2022-10-18T01:17:05;16.52;;;5.88;;
23614;SDS011;11985;49.404;7.734;2022-10-18T01:19:24;16.13;;;5.80;;
23614;SDS011;11985;49.404;7.734;2022-10-18T01:21:43;12.05;;;5.30;;
23614;SDS011;11985;49.404;7.734;2022-10-18T01:23:57;15.85;;;5.50;;
23614;SDS011;11985;49.404;7.734;2022-10-18T01:26:17;12.45;;;5.22;;
23614;SDS011;11985;49.404;7.734;2022-10-18T01:28:32;15.23;;;5.70;;
23614;SDS011;11985;49.404;7.734;2022-10-18T01:30:50;14.18;;;5.53;;
23614;SDS011;11985;49.404;7.734;2022-10-18T01:32:56;18.17;;;5.28;;
23614;SDS011;11985;49.404;7.734;2022-10-18T01:35:03;16.65;;;6.13;;
23614;SDS011;11985;49.404;7.734;2022-10-18T01:37:10;16.40;;;6.03;;
23614;SDS011;11985;49.404;7.734;2022-10-18T01:39:19;14.15;;;5.30;;
23614;SDS011;11985;49.404;7.734;2022-10-18T01:41:24;11.35;;;5.25;;
23614;SDS011;11985;49.404;7.734;2022-10-18T01:43:28;17.85;;;5.43;;
23614;SDS011;11985;49.404;7.734;2022-10-18T01:45:32;15.95;;;5.57;;
23614;SDS011;11985;49.404;7.734;2022-10-18T01:47:35;23.55;;;6.25;;
23614;SDS011;11985;49.404;7.734;2022-10-18T01:49:37;13.52;;;5.85;;
23614;SDS011;11985;49.404;7.734;2022-10-18T01:51:38;19.00;;;5.57;;
23614;SDS011;11985;49.404;7.734;2022-10-18T01:53:40;18.85;;;6.25;;
23614;SDS011;11985;49.404;7.734;2022-10-18T01:55:42;30.25;;;5.57;;
23614;SDS011;11985;49.404;7.734;2022-10-18T01:57:57;27.35;;;6.18;;
23614;SDS011;11985;49.404;7.734;2022-10-18T02:00:06;23.70;;;6.13;;
23614;SDS011;11985;49.404;7.734;2022-10-18T02:02:17;24.85;;;6.18;;
23614;SDS011;11985;49.404;7.734;2022-10-18T02:04:27;27.67;;;6.22;;
23614;SDS011;11985;49.404;7.734;2022-10-18T02:06:34;28.80;;;7.15;;
23614;SDS011;11985;49.404;7.734;2022-10-18T02:08:41;23.83;;;6.40;;
23614;SDS011;11985;49.404;7.734;2022-10-18T02:10:49;20.27;;;6.65;;
23614;SDS011;11985;49.404;7.734;2022-10-18T02:12:53;23.88;;;5.30;;
23614;SDS011;11985;49.404;7.734;2022-10-18T02:14:56;25.48;;;7.18;;
23614;SDS011;11985;49.404;7.734;2022-10-18T02:17:00;21.88;;;6.07;;
23614;SDS011;11985;49.404;7.734;2022-10-18T02:19:07;16.70;;;6.25;;
23614;SDS011;11985;49.404;7.734;2022-10-18T02:21:16;18.00;;;5.70;;
23614;SDS011;11985;49.404;7.734;2022-10-18T02:23:22;21.10;;;5.97;;
23614;SDS011;11985;49.404;7.734;2022-10-18T02:25:26;19.80;;;6.00;;
23614;SDS011;11985;49.404;7.734;2022-10-18T02:27:30;15.60;;;5.80;;
23614;SDS011;11985;49.404;7.734;2022-10-18T02:31:35;15.05;;;6.18;;
23614;SDS011;11985;49.404;7.734;2022-10-18T02:33:42;21.35;;;6.00;;
23614;SDS011;11985;49.404;7.734;2022-10-18T02:35:51;15.13;;;5.38;;
23614;SDS011;11985;49.404;7.734;2022-10-18T02:37:59;29.15;;;6.65;;
23614;SDS011;11985;49.404;7.734;2022-10-18T02:40:02;19.05;;;5.75;;
23614;SDS011;11985;49.404;7.734;2022-10-18T02:42:05;19.98;;;5.88;;
23614;SDS011;11985;49.404;7.734;2022-10-18T02:46:08;29.42;;;5.70;;
23614;SDS011;11985;49.404;7.734;2022-10-18T02:48:10;16.92;;;5.72;;
23614;SDS011;11985;49.404;7.734;2022-10-18T02:50:12;20.92;;;5.22;;
23614;SDS011;11985;49.404;7.734;2022-10-18T02:52:14;16.25;;;5.68;;
23614;SDS011;11985;49.404;7.734;2022-10-18T02:54:17;14.15;;;5.68;;
23614;SDS011;11985;49.404;7.734;2022-10-18T02:56:19;17.13;;;5.40;;
23614;SDS011;11985;49.404;7.734;2022-10-18T02:58:20;12.25;;;4.82;;
23614;SDS011;11985;49.404;7.734;2022-10-18T03:00:22;13.65;;;5.00;;
23614;SDS011;11985;49.404;7.734;2022-10-18T03:02:23;15.40;;;4.90;;
23614;SDS011;11985;49.404;7.734;2022-10-18T03:04:25;12.00;;;4.85;;
23614;SDS011;11985;49.404;7.734;2022-10-18T03:06:26;10.82;;;4.68;;
23614;SDS011;11985;49.404;7.734;2022-10-18T03:08:28;14.10;;;4.75;;
23614;SDS011;11985;49.404;7.734;2022-10-18T03:10:31;9.65;;;4.68;;
23614;SDS011;11985;49.404;7.734;2022-10-18T03:12:32;13.43;;;5.60;;
23614;SDS011;11985;49.404;7.734;2022-10-18T03:14:34;11.50;;;4.97;;
23614;SDS011;11985;49.404;7.734;2022-10-18T03:16:35;15.52;;;5.03;;
23614;SDS011;11985;49.404;7.734;2022-10-18T03:18:37;9.88;;;4.85;;
23614;SDS011;11985;49.404;7.734;2022-10-18T03:20:38;12.82;;;5.22;;
23614;SDS011;11985;49.404;7.734;2022-10-18T03:22:40;10.70;;;3.97;;
23614;SDS011;11985;49.404;7.734;2022-10-18T03:24:41;13.27;;;4.47;;
23614;SDS011;11985;49.404;7.734;2022-10-18T03:26:45;6.93;;;4.40;;
23614;SDS011;11985;49.404;7.734;2022-10-18T03:28:47;11.60;;;5.07;;
23614;SDS011;11985;49.404;7.734;2022-10-18T03:30:49;10.68;;;4.93;;
23614;SDS011;11985;49.404;7.734;2022-10-18T03:32:50;15.00;;;5.25;;
23614;SDS011;11985;49.404;7.734;2022-10-18T03:34:53;14.48;;;4.63;;
23614;SDS011;11985;49.404;7.734;2022-10-18T03:38:56;10.57;;;4.75;;
23614;SDS011;11985;49.404;7.734;2022-10-18T03:40:58;8.15;;;5.35;;
23614;SDS011;11985;49.404;7.734;2022-10-18T03:43:01;8.70;;;5.25;;
23614;SDS011;11985;49.404;7.734;2022-10-18T03:45:02;11.50;;;5.20;;
23614;SDS011;11985;49.404;7.734;2022-10-18T03:47:04;11.68;;;5.50;;
23614;SDS011;11985;49.404;7.734;2022-10-18T03:49:06;14.90;;;5.32;;
23614;SDS011;11985;49.404;7.734;2022-10-18T03:51:08;13.65;;;5.30;;
23614;SDS011;11985;49.404;7.734;2022-10-18T03:53:09;18.55;;;5.93;;
23614;SDS011;11985;49.404;7.734;2022-10-18T03:55:11;10.10;;;5.57;;
23614;SDS011;11985;49.404;7.734;2022-10-18T03:57:12;8.02;;;5.38;;
23614;SDS011;11985;49.404;7.734;2022-10-18T03:59:15;16.42;;;5.75;;
23614;SDS011;11985;49.404;7.734;2022-10-18T04:01:17;20.17;;;5.40;;
23614;SDS011;11985;49.404;7.734;2022-10-18T04:03:19;12.98;;;4.80;;
23614;SDS011;11985;49.404;7.734;2022-10-18T04:05:21;12.38;;;5.05;;
23614;SDS011;11985;49.404;7.734;2022-10-18T04:07:25;12.63;;;4.95;;
23614;SDS011;11985;49.404;7.734;2022-10-18T04:09:27;12.45;;;4.40;;
23614;SDS011;11985;49.404;7.734;2022-10-18T04:11:28;18.75;;;4.80;;
23614;SDS011;11985;49.404;7.734;2022-10-18T04:13:30;19.40;;;4.85;;
23614;SDS011;11985;49.404;7.734;2022-10-18T04:15:33;16.00;;;4.80;;
23614;SDS011;11985;49.404;7.734;2022-10-18T04:17:34;14.05;;;4.47;;
23614;SDS011;11985;49.404;7.734;2022-10-18T04:19:36;14.98;;;5.03;;
23614;SDS011;11985;49.404;7.734;2022-10-18T04:21:37;24.65;;;4.65;;
23614;SDS011;11985;49.404;7.734;2022-10-18T04:23:39;15.07;;;4.97;;
23614;SDS011;11985;49.404;7.734;2022-10-18T04:25:41;12.13;;;4.80;;
23614;SDS011;11985;49.404;7.734;2022-10-18T04:27:42;6.25;;;4.50;;
23614;SDS011;11985;49.404;7.734;2022-10-18T04:29:44;13.15;;;5.28;;
23614;SDS011;11985;49.404;7.734;2022-10-18T04:31:47;19.00;;;5.35;;
23614;SDS011;11985;49.404;7.734;2022-10-18T04:33:48;12.88;;;4.55;;
23614;SDS011;11985;49.404;7.734;2022-10-18T04:35:50;15.65;;;5.18;;
23614;SDS011;11985;49.404;7.734;2022-10-18T04:37:53;17.73;;;5.13;;
23614;SDS011;11985;49.404;7.734;2022-10-18T04:39:54;12.43;;;5.38;;
23614;SDS011;11985;49.404;7.734;2022-10-18T04:41:56;16.30;;;5.57;;
23614;SDS011;11985;49.404;7.734;2022-10-18T04:43:57;13.93;;;4.63;;
23614;SDS011;11985;49.404;7.734;2022-10-18T04:45:59;17.63;;;5.40;;
23614;SDS011;11985;49.404;7.734;2022-10-18T04:48:02;16.35;;;5.45;;
23614;SDS011;11985;49.404;7.734;2022-10-18T04:50:04;14.80;;;5.60;;
23614;SDS011;11985;49.404;7.734;2022-10-18T04:52:06;14.05;;;4.95;;
23614;SDS011;11985;49.404;7.734;2022-10-18T04:54:08;22.60;;;5.57;;
23614;SDS011;11985;49.404;7.734;2022-10-18T04:56:10;13.68;;;5.30;;
23614;SDS011;11985;49.404;7.734;2022-10-18T04:58:12;17.00;;;5.38;;
23614;SDS011;11985;49.404;7.734;2022-10-18T05:00:13;13.43;;;5.05;;
23614;SDS011;11985;49.404;7.734;2022-10-18T05:02:15;15.18;;;5.82;;
23614;SDS011;11985;49.404;7.734;2022-10-18T05:04:18;15.07;;;5.32;;
23614;SDS011;11985;49.404;7.734;2022-10-18T05:06:20;15.82;;;5.53;;
23614;SDS011;11985;49.404;7.734;2022-10-18T05:08:22;8.05;;;4.55;;
23614;SDS011;11985;49.404;7.734;2022-10-18T05:10:23;14.10;;;5.15;;
23614;SDS011;11985;49.404;7.734;2022-10-18T05:12:25;20.42;;;5.32;;
23614;SDS011;11985;49.404;7.734;2022-10-18T05:14:27;12.65;;;5.03;;
23614;SDS011;11985;49.404;7.734;2022-10-18T05:16:28;17.38;;;5.93;;
23614;SDS011;11985;49.404;7.734;2022-10-18T05:18:31;24.50;;;5.80;;
23614;SDS011;11985;49.404;7.734;2022-10-18T05:22:35;17.23;;;5.30;;
23614;SDS011;11985;49.404;7.734;2022-10-18T05:24:37;17.55;;;6.55;;
23614;SDS011;11985;49.404;7.734;2022-10-18T05:28:40;23.50;;;5.75;;
23614;SDS011;11985;49.404;7.734;2022-10-18T05:30:42;17.00;;;5.15;;
23614;SDS011;11985;49.404;7.734;2022-10-18T05:32:44;14.73;;;5.88;;
23614;SDS011;11985;49.404;7.734;2022-10-18T05:34:45;10.00;;;4.75;;
23614;SDS011;11985;49.404;7.734;2022-10-18T05:36:48;13.15;;;5.30;;
23614;SDS011;11985;49.404;7.734;2022-10-18T05:38:51;12.63;;;5.38;;
23614;SDS011;11985;49.404;7.734;2022-10-18T05:40:53;15.10;;;5.60;;
23614;SDS011;11985;49.404;7.734;2022-10-18T05:42:55;13.80;;;6.43;;
23614;SDS011;11985;49.404;7.734;2022-10-18T05:46:58;14.25;;;5.70;;
23614;SDS011;11985;49.404;7.734;2022-10-18T05:49:00;14.77;;;5.43;;
23614;SDS011;11985;49.404;7.734;2022-10-18T05:51:02;16.73;;;5.85;;
23614;SDS011;11985;49.404;7.734;2022-10-18T05:53:06;15.35;;;6.40;;
23614;SDS011;11985;49.404;7.734;2022-10-18T05:55:08;13.00;;;6.28;;
23614;SDS011;11985;49.404;7.734;2022-10-18T05:57:10;13.73;;;5.97;;
23614;SDS011;11985;49.404;7.734;2022-10-18T05:59:11;29.27;;;6.38;;
23614;SDS011;11985;49.404;7.734;2022-10-18T06:01:16;22.00;;;6.68;;
23614;SDS011;11985;49.404;7.734;2022-10-18T06:03:18;19.52;;;6.05;;
23614;SDS011;11985;49.404;7.734;2022-10-18T06:05:20;19.15;;;6.35;;
23614;SDS011;11985;49.404;7.734;2022-10-18T06:07:22;15.93;;;7.07;;
23614;SDS011;11985;49.404;7.734;2022-10-18T06:09:26;20.27;;;6.35;;
23614;SDS011;11985;49.404;7.734;2022-10-18T06:11:29;12.13;;;6.28;;
23614;SDS011;11985;49.404;7.734;2022-10-18T06:13:31;17.55;;;6.95;;
23614;SDS011;11985;49.404;7.734;2022-10-18T06:15:33;19.75;;;7.80;;
23614;SDS011;11985;49.404;7.734;2022-10-18T06:17:34;13.80;;;6.28;;
23614;SDS011;11985;49.404;7.734;2022-10-18T06:19:36;14.05;;;5.88;;
23614;SDS011;11985;49.404;7.734;2022-10-18T06:21:38;8.68;;;6.20;;
23614;SDS011;11985;49.404;7.734;2022-10-18T06:23:39;13.75;;;5.93;;
23614;SDS011;11985;49.404;7.734;2022-10-18T06:25:42;15.90;;;5.60;;
23614;SDS011;11985;49.404;7.734;2022-10-18T06:27:44;11.35;;;5.90;;
23614;SDS011;11985;49.404;7.734;2022-10-18T06:29:45;15.27;;;6.07;;
23614;SDS011;11985;49.404;7.734;2022-10-18T06:31:47;12.23;;;5.28;;
23614;SDS011;11985;49.404;7.734;2022-10-18T06:33:49;12.10;;;6.03;;
23614;SDS011;11985;49.404;7.734;2022-10-18T06:35:54;11.18;;;5.55;;
23614;SDS011;11985;49.404;7.734;2022-10-18T06:37:57;16.50;;;6.38;;
23614;SDS011;11985;49.404;7.734;2022-10-18T06:39:58;9.77;;;6.15;;
23614;SDS011;11985;49.404;7.734;2022-10-18T06:42:01;15.60;;;6.03;;
23614;SDS011;11985;49.404;7.734;2022-10-18T06:44:03;12.05;;;6.22;;
23614;SDS011;11985;49.404;7.734;2022-10-18T06:46:12;9.82;;;5.85;;
23614;SDS011;11985;49.404;7.734;2022-10-18T06:48:14;18.33;;;6.07;;
23614;SDS011;11985;49.404;7.734;2022-10-18T06:52:17;7.90;;;5.85;;
23614;SDS011;11985;49.404;7.734;2022-10-18T06:54:21;10.57;;;5.88;;
23614;SDS011;11985;49.404;7.734;2022-10-18T06:56:23;17.50;;;6.60;;
23614;SDS011;11985;49.404;7.734;2022-10-18T06:58:26;12.57;;;5.88;;
23614;SDS011;11985;49.404;7.734;2022-10-18T07:00:27;16.95;;;5.82;;
23614;SDS011;11985;49.404;7.734;2022-10-18T07:02:29;14.48;;;6.28;;
23614;SDS011;11985;49.404;7.734;2022-10-18T07:04:31;15.27;;;6.38;;
23614;SDS011;11985;49.404;7.734;2022-10-18T07:06:32;8.15;;;5.88;;
23614;SDS011;11985;49.404;7.734;2022-10-18T07:08:34;17.90;;;5.88;;
23614;SDS011;11985;49.404;7.734;2022-10-18T07:12:37;11.77;;;5.72;;
23614;SDS011;11985;49.404;7.734;2022-10-18T07:14:40;10.20;;;5.85;;
23614;SDS011;11985;49.404;7.734;2022-10-18T07:16:41;14.15;;;5.82;;
23614;SDS011;11985;49.404;7.734;2022-10-18T07:18:44;13.13;;;5.90;;
23614;SDS011;11985;49.404;7.734;2022-10-18T07:20:47;12.85;;;6.32;;
23614;SDS011;11985;49.404;7.734;2022-10-18T07:22:49;15.23;;;5.78;;
23614;SDS011;11985;49.404;7.734;2022-10-18T07:24:50;10.40;;;6.40;;
23614;SDS011;11985;49.404;7.734;2022-10-18T07:26:52;10.13;;;6.05;;
23614;SDS011;11985;49.404;7.734;2022-10-18T07:28:54;17.58;;;5.88;;
23614;SDS011;11985;49.404;7.734;2022-10-18T07:31:05;15.73;;;6.05;;
23614;SDS011;11985;49.404;7.734;2022-10-18T07:33:08;17.65;;;6.50;;
23614;SDS011;11985;49.404;7.734;2022-10-18T07:35:09;12.20;;;6.35;;
23614;SDS011;11985;49.404;7.734;2022-10-18T07:39:13;16.48;;;6.97;;
23614;SDS011;11985;49.404;7.734;2022-10-18T07:41:15;10.27;;;6.20;;
23614;SDS011;11985;49.404;7.734;2022-10-18T07:43:17;18.27;;;7.32;;
23614;SDS011;11985;49.404;7.734;2022-10-18T07:45:19;18.10;;;6.75;;
23614;SDS011;11985;49.404;7.734;2022-10-18T07:49:24;14.30;;;7.50;;
23614;SDS011;11985;49.404;7.734;2022-10-18T07:53:27;15.70;;;7.57;;
23614;SDS011;11985;49.404;7.734;2022-10-18T07:55:31;16.67;;;7.72;;
23614;SDS011;11985;49.404;7.734;2022-10-18T07:57:33;16.98;;;8.20;;
23614;SDS011;11985;49.404;7.734;2022-10-18T08:01:37;12.63;;;7.95;;
23614;SDS011;11985;49.404;7.734;2022-10-18T08:03:41;16.25;;;7.13;;
23614;SDS011;11985;49.404;7.734;2022-10-18T08:05:43;16.30;;;8.07;;
23614;SDS011;11985;49.404;7.734;2022-10-18T08:07:51;14.73;;;7.57;;
23614;SDS011;11985;49.404;7.734;2022-10-18T08:09:53;20.67;;;8.25;;
23614;SDS011;11985;49.404;7.734;2022-10-18T08:11:55;16.02;;;9.02;;
23614;SDS011;11985;49.404;7.734;2022-10-18T08:15:59;13.02;;;9.80;;
23614;SDS011;11985;49.404;7.734;2022-10-18T08:18:03;17.92;;;10.52;;
23614;SDS011;11985;49.404;7.734;2022-10-18T08:20:06;20.90;;;11.07;;
23614;SDS011;11985;49.404;7.734;2022-10-18T08:22:08;21.65;;;11.40;;
23614;SDS011;11985;49.404;7.734;2022-10-18T08:24:10;18.88;;;11.60;;
23614;SDS011;11985;49.404;7.734;2022-10-18T08:28:14;18.30;;;11.68;;
23614;SDS011;11985;49.404;7.734;2022-10-18T08:30:16;20.95;;;12.00;;
23614;SDS011;11985;49.404;7.734;2022-10-18T08:34:20;20.98;;;12.77;;
23614;SDS011;11985;49.404;7.734;2022-10-18T08:36:23;20.88;;;13.30;;
23614;SDS011;11985;49.404;7.734;2022-10-18T08:38:25;21.05;;;13.73;;
23614;SDS011;11985;49.404;7.734;2022-10-18T08:40:28;26.17;;;14.38;;
23614;SDS011;11985;49.404;7.734;2022-10-18T08:42:44;20.85;;;14.50;;
23614;SDS011;11985;49.404;7.734;2022-10-18T08:44:59;24.33;;;15.68;;
23614;SDS011;11985;49.404;7.734;2022-10-18T08:49:04;27.42;;;17.20;;
23614;SDS011;11985;49.404;7.734;2022-10-18T08:51:12;30.95;;;15.85;;
23614;SDS011;11985;49.404;7.734;2022-10-18T08:53:25;19.92;;;13.98;;
23614;SDS011;11985;49.404;7.734;2022-10-18T08:55:30;23.23;;;15.55;;
23614;SDS011;11985;49.404;7.734;2022-10-18T08:57:36;26.30;;;14.73;;
23614;SDS011;11985;49.404;7.734;2022-10-18T08:59:38;22.88;;;15.38;;
23614;SDS011;11985;49.404;7.734;2022-10-18T09:01:43;27.42;;;13.05;;
23614;SDS011;11985;49.404;7.734;2022-10-18T09:04:05;21.60;;;12.43;;
23614;SDS011;11985;49.404;7.734;2022-10-18T09:06:18;21.05;;;12.07;;
23614;SDS011;11985;49.404;7.734;2022-10-18T09:10:55;21.00;;;12.30;;
23614;SDS011;11985;49.404;7.734;2022-10-18T09:13:11;21.52;;;11.70;;
23614;SDS011;11985;49.404;7.734;2022-10-18T09:15:38;17.15;;;11.43;;
23614;SDS011;11985;49.404;7.734;2022-10-18T09:17:52;17.70;;;10.70;;
23614;SDS011;11985;49.404;7.734;2022-10-18T09:20:10;17.48;;;9.15;;
23614;SDS011;11985;49.404;7.734;2022-10-18T09:22:23;16.40;;;9.35;;
23614;SDS011;11985;49.404;7.734;2022-10-18T09:24:35;22.90;;;9.50;;
23614;SDS011;11985;49.404;7.734;2022-10-18T09:26:42;15.80;;;8.90;;
23614;SDS011;11985;49.404;7.734;2022-10-18T09:28:55;16.33;;;8.15;;
23614;SDS011;11985;49.404;7.734;2022-10-18T09:31:06;11.82;;;8.45;;
23614;SDS011;11985;49.404;7.734;2022-10-18T09:33:22;16.67;;;8.97;;
23614;SDS011;11985;49.404;7.734;2022-10-18T09:35:32;14.85;;;8.93;;
23614;SDS011;11985;49.404;7.734;2022-10-18T09:37:42;18.00;;;8.25;;
23614;SDS011;11985;49.404;7.734;2022-10-18T09:39:46;12.48;;;8.73;;
23614;SDS011;11985;49.404;7.734;2022-10-18T09:41:50;12.93;;;7.00;;
23614;SDS011;11985;49.404;7.734;2022-10-18T09:43:54;14.32;;;6.78;;
23614;SDS011;11985;49.404;7.734;2022-10-18T09:46:00;12.30;;;6.68;;
23614;SDS011;11985;49.404;7.734;2022-10-18T09:48:04;12.90;;;5.68;;
23614;SDS011;11985;49.404;7.734;2022-10-18T09:50:14;9.30;;;4.35;;
23614;SDS011;11985;49.404;7.734;2022-10-18T09:52:24;9.30;;;5.20;;
23614;SDS011;11985;49.404;7.734;2022-10-18T09:54:32;9.70;;;5.35;;
23614;SDS011;11985;49.404;7.734;2022-10-18T09:56:42;6.63;;;3.80;;
23614;SDS011;11985;49.404;7.734;2022-10-18T09:58:48;6.13;;;3.70;;
23614;SDS011;11985;49.404;7.734;2022-10-18T10:00:50;10.38;;;4.50;;
23614;SDS011;11985;49.404;7.734;2022-10-18T10:02:53;8.15;;;4.07;;
23614;SDS011;11985;49.404;7.734;2022-10-18T10:04:55;7.97;;;4.28;;
23614;SDS011;11985;49.404;7.734;2022-10-18T10:06:58;10.18;;;4.18;;
23614;SDS011;11985;49.404;7.734;2022-10-18T10:09:04;5.78;;;3.63;;
23614;SDS011;11985;49.404;7.734;2022-10-18T10:11:12;7.43;;;3.70;;
23614;SDS011;11985;49.404;7.734;2022-10-18T10:13:28;5.00;;;3.40;;
23614;SDS011;11985;49.404;7.734;2022-10-18T10:15:30;5.68;;;3.10;;
23614;SDS011;11985;49.404;7.734;2022-10-18T10:17:32;5.90;;;3.13;;
23614;SDS011;11985;49.404;7.734;2022-10-18T10:19:36;6.32;;;3.30;;
23614;SDS011;11985;49.404;7.734;2022-10-18T10:21:58;6.97;;;4.07;;
23614;SDS011;11985;49.404;7.734;2022-10-18T10:24:03;13.18;;;4.47;;
23614;SDS011;11985;49.404;7.734;2022-10-18T10:26:05;8.75;;;4.80;;
23614;SDS011;11985;49.404;7.734;2022-10-18T10:28:22;7.80;;;4.43;;
23614;SDS011;11985;49.404;7.734;2022-10-18T10:30:30;7.25;;;4.70;;
23614;SDS011;11985;49.404;7.734;2022-10-18T10:32:43;6.00;;;3.75;;
23614;SDS011;11985;49.404;7.734;2022-10-18T10:34:47;3.65;;;3.00;;
23614;SDS011;11985;49.404;7.734;2022-10-18T10:36:49;4.45;;;3.15;;
23614;SDS011;11985;49.404;7.734;2022-10-18T10:39:01;6.20;;;3.05;;
23614;SDS011;11985;49.404;7.734;2022-10-18T10:43:15;3.85;;;2.60;;
23614;SDS011;11985;49.404;7.734;2022-10-18T10:45:18;3.67;;;2.60;;
23614;SDS011;11985;49.404;7.734;2022-10-18T10:47:26;3.75;;;2.20;;
23614;SDS011;11985;49.404;7.734;2022-10-18T10:49:38;3.83;;;1.70;;
23614;SDS011;11985;49.404;7.734;2022-10-18T10:51:43;3.42;;;1.77;;
23614;SDS011;11985;49.404;7.734;2022-10-18T10:53:46;7.35;;;1.77;;
23614;SDS011;11985;49.404;7.734;2022-10-18T10:55:51;2.97;;;1.95;;
23614;SDS011;11985;49.404;7.734;2022-10-18T10:57:54;2.55;;;1.95;;
23614;SDS011;11985;49.404;7.734;2022-10-18T10:59:57;6.53;;;2.22;;
23614;SDS011;11985;49.404;7.734;2022-10-18T11:02:10;2.60;;;1.95;;
23614;SDS011;11985;49.404;7.734;2022-10-18T11:04:23;2.70;;;2.10;;
23614;SDS011;11985;49.404;7.734;2022-10-18T11:06:37;6.90;;;2.92;;
23614;SDS011;11985;49.404;7.734;2022-10-18T11:08:46;4.72;;;1.73;;
23614;SDS011;11985;49.404;7.734;2022-10-18T11:10:53;1.90;;;1.10;;
23614;SDS011;11985;49.404;7.734;2022-10-18T11:13:01;1.77;;;1.15;;
23614;SDS011;11985;49.404;7.734;2022-10-18T11:15:17;2.35;;;1.30;;
23614;SDS011;11985;49.404;7.734;2022-10-18T11:17:22;2.00;;;1.40;;
23614;SDS011;11985;49.404;7.734;2022-10-18T11:19:33;1.92;;;1.25;;
23614;SDS011;11985;49.404;7.734;2022-10-18T11:21:40;2.10;;;1.20;;
23614;SDS011;11985;49.404;7.734;2022-10-18T11:23:42;1.98;;;1.40;;
23614;SDS011;11985;49.404;7.734;2022-10-18T11:25:50;3.38;;;1.33;;
23614;SDS011;11985;49.404;7.734;2022-10-18T11:28:02;3.22;;;2.00;;
23614;SDS011;11985;49.404;7.734;2022-10-18T11:30:17;4.72;;;1.85;;
23614;SDS011;11985;49.404;7.734;2022-10-18T11:32:38;2.90;;;2.17;;
23614;SDS011;11985;49.404;7.734;2022-10-18T11:34:50;4.05;;;2.30;;
23614;SDS011;11985;49.404;7.734;2022-10-18T11:37:03;3.28;;;2.33;;
23614;SDS011;11985;49.404;7.734;2022-10-18T11:39:15;5.60;;;2.47;;
23614;SDS011;11985;49.404;7.734;2022-10-18T11:41:27;4.15;;;2.38;;
23614;SDS011;11985;49.404;7.734;2022-10-18T11:43:33;6.80;;;2.20;;
23614;SDS011;11985;49.404;7.734;2022-10-18T11:45:44;6.40;;;2.17;;
23614;SDS011;11985;49.404;7.734;2022-10-18T11:47:56;4.50;;;1.90;;
23614;SDS011;11985;49.404;7.734;2022-10-18T11:50:08;2.05;;;1.48;;
23614;SDS011;11985;49.404;7.734;2022-10-18T11:52:18;2.92;;;1.92;;
23614;SDS011;11985;49.404;7.734;2022-10-18T11:54:36;5.38;;;2.33;;
23614;SDS011;11985;49.404;7.734;2022-10-18T11:56:48;3.33;;;1.70;;
23614;SDS011;11985;49.404;7.734;2022-10-18T11:59:00;3.85;;;1.75;;
23614;SDS011;11985;49.404;7.734;2022-10-18T12:01:18;1.75;;;1.45;;
23614;SDS011;11985;49.404;7.734;2022-10-18T12:03:30;2.00;;;1.50;;
23614;SDS011;11985;49.404;7.734;2022-10-18T12:05:48;3.42;;;1.50;;
23614;SDS011;11985;49.404;7.734;2022-10-18T12:07:52;1.88;;;1.23;;
23614;SDS011;11985;49.404;7.734;2022-10-18T12:09:59;2.28;;;1.30;;
23614;SDS011;11985;49.404;7.734;2022-10-18T12:12:05;2.10;;;1.33;;
23614;SDS011;11985;49.404;7.734;2022-10-18T12:14:13;4.40;;;1.23;;
23614;SDS011;11985;49.404;7.734;2022-10-18T12:16:22;1.55;;;1.15;;
23614;SDS011;11985;49.404;7.734;2022-10-18T12:18:25;3.80;;;1.10;;
23614;SDS011;11985;49.404;7.734;2022-10-18T12:20:30;3.92;;;1.85;;
23614;SDS011;11985;49.404;7.734;2022-10-18T12:22:36;2.85;;;1.40;;
23614;SDS011;11985;49.404;7.734;2022-10-18T12:24:40;2.47;;;1.88;;
23614;SDS011;11985;49.404;7.734;2022-10-18T12:26:42;3.45;;;2.38;;
23614;SDS011;11985;49.404;7.734;2022-10-18T12:28:53;3.20;;;2.35;;
23614;SDS011;11985;49.404;7.734;2022-10-18T12:31:02;3.33;;;2.00;;
23614;SDS011;11985;49.404;7.734;2022-10-18T12:33:13;3.63;;;1.88;;
23614;SDS011;11985;49.404;7.734;2022-10-18T12:35:17;4.78;;;1.90;;
23614;SDS011;11985;49.404;7.734;2022-10-18T12:39:56;5.10;;;1.95;;
23614;SDS011;11985;49.404;7.734;2022-10-18T12:42:01;4.50;;;1.85;;
23614;SDS011;11985;49.404;7.734;2022-10-18T12:44:04;8.35;;;2.30;;
23614;SDS011;11985;49.404;7.734;2022-10-18T12:46:08;2.67;;;1.73;;
23614;SDS011;11985;49.404;7.734;2022-10-18T12:48:14;3.95;;;2.45;;
23614;SDS011;11985;49.404;7.734;2022-10-18T12:50:30;2.95;;;1.90;;
23614;SDS011;11985;49.404;7.734;2022-10-18T12:52:35;4.13;;;2.03;;
23614;SDS011;11985;49.404;7.734;2022-10-18T12:56:39;9.18;;;2.90;;
23614;SDS011;11985;49.404;7.734;2022-10-18T12:58:42;5.10;;;2.92;;
23614;SDS011;11985;49.404;7.734;2022-10-18T13:00:50;3.67;;;2.97;;
23614;SDS011;11985;49.404;7.734;2022-10-18T13:08:00;7.30;;;2.42;;
23614;SDS011;11985;49.404;7.734;2022-10-18T13:10:32;4.35;;;2.25;;
23614;SDS011;11985;49.404;7.734;2022-10-18T13:12:48;2.97;;;1.02;;
23614;SDS011;11985;49.404;7.734;2022-10-18T13:14:59;3.08;;;1.08;;